Time;durP1;ratioP1;P1;durP2;ratioP2;P2;SDS_P1;SDS_P2;PMS_P1;PMS_P2;Temp;Humidity;BMP_temperature;BMP_pressure;BME280_temperature;BME280_humidity;BME280_pressure;Samples;Min_cycle;Max_cycle;Signal;HPM_P1;HPM_P2
2023/10/11 00:00:57;;;;;;;33.67;22.67;;;;;;;14.52;68.31;99875.22;4437110;32;34476;-86
2023/10/11 00:05:55;;;;;;;35.67;22.58;;;;;;;14.61;67.62;99863.97;4458017;32;33890;-85
2023/10/11 00:08:26;;;;;;;31.10;22.23;;;;;;;14.71;67.05;99862.31;4462312;32;33607;-87
2023/10/11 00:10:59;;;;;;;29.77;21.35;;;;;;;14.75;66.42;99858.88;4452440;32;33271;-87
2023/10/11 00:13:32;;;;;;;31.50;21.75;;;;;;;14.71;66.51;99857.09;4459564;32;34026;-87
2023/10/11 00:16:09;;;;;;;30.80;22.35;;;;;;;14.68;66.42;99854.47;4453518;32;34043;-87
2023/10/11 00:18:39;;;;;;;33.00;22.08;;;;;;;14.38;67.46;99861.16;4440344;32;33572;-87
2023/10/11 00:21:11;;;;;;;29.45;20.45;;;;;;;14.44;67.14;99858.59;4440395;32;33510;-84
2023/10/11 00:23:41;;;;;;;30.15;22.37;;;;;;;14.45;67.07;99856.87;4444694;32;33826;-84
2023/10/11 00:26:09;;;;;;;31.25;21.40;;;;;;;14.41;67.10;99858.56;4453664;32;35207;-85
2023/10/11 00:28:38;;;;;;;32.88;22.30;;;;;;;14.41;66.57;99861.19;4458155;32;34692;-84
2023/10/11 00:31:16;;;;;;;31.90;22.17;;;;;;;14.38;66.77;99855.94;4454765;32;33056;-84
2023/10/11 00:33:46;;;;;;;33.78;22.23;;;;;;;14.42;66.57;99849.00;4457170;32;33977;-85
2023/10/11 00:36:29;;;;;;;27.52;20.62;;;;;;;14.38;66.31;99858.53;4443447;32;33876;-84
2023/10/11 00:38:57;;;;;;;34.17;21.40;;;;;;;14.33;66.43;99852.44;4444012;32;33883;-84
2023/10/11 00:41:31;;;;;;;29.50;20.88;;;;;;;14.18;66.89;99854.91;4459584;32;33719;-85
2023/10/11 00:43:59;;;;;;;32.72;22.08;;;;;;;14.18;66.85;99854.91;4457598;32;33879;-86
2023/10/11 00:46:38;;;;;;;33.60;23.45;;;;;;;14.12;66.85;99850.47;4458980;32;34191;-86
2023/10/11 00:49:12;;;;;;;34.40;21.73;;;;;;;14.11;66.81;99846.13;4442816;32;33940;-84
2023/10/11 00:51:43;;;;;;;33.05;21.85;;;;;;;14.23;66.47;99840.16;4462862;32;33520;-86
2023/10/11 00:54:15;;;;;;;32.65;22.15;;;;;;;14.15;66.70;99845.31;4448401;32;33498;-86
2023/10/11 00:56:44;;;;;;;32.22;22.52;;;;;;;14.17;66.19;99846.19;4456401;32;34917;-86
2023/10/11 00:59:15;;;;;;;29.35;20.23;;;;;;;14.03;66.44;99843.47;4466263;32;34082;-86
2023/10/11 01:01:45;;;;;;;31.67;21.65;;;;;;;14.09;66.27;99840.91;4457904;32;33044;-86
2023/10/11 01:04:16;;;;;;;39.50;24.20;;;;;;;14.11;65.79;99833.97;4439246;32;33798;-85
2023/10/11 01:06:48;;;;;;;36.47;23.55;;;;;;;14.02;66.05;99836.50;4458895;32;33932;-85
2023/10/11 01:09:17;;;;;;;33.83;21.10;;;;;;;14.06;66.05;99830.47;4448070;32;34296;-85
2023/10/11 01:11:47;;;;;;;33.35;22.52;;;;;;;13.99;66.19;99836.47;4451163;32;33613;-86
2023/10/11 01:14:16;;;;;;;34.47;22.92;;;;;;;13.89;66.24;99829.41;4438486;32;33487;-85
2023/10/11 01:16:43;;;;;;;34.42;23.70;;;;;;;13.93;66.19;99827.72;4457232;32;34925;-85
2023/10/11 01:19:12;;;;;;;35.15;24.73;;;;;;;13.93;66.33;99841.59;4438254;32;33943;-86
2023/10/11 01:21:41;;;;;;;34.65;23.50;;;;;;;13.79;67.00;99841.50;4463203;32;33153;-86
2023/10/11 01:24:09;;;;;;;38.38;27.08;;;;;;;13.85;66.99;99843.28;4446448;32;34285;-85
2023/10/11 01:26:37;;;;;;;38.63;25.62;;;;;;;13.77;67.38;99844.94;4460673;32;34319;-86
2023/10/11 01:29:05;;;;;;;34.72;24.73;;;;;;;13.90;67.29;99854.59;4455009;32;34583;-84
2023/10/11 01:31:34;;;;;;;38.22;25.92;;;;;;;13.93;67.22;99851.16;4459888;32;33702;-85
2023/10/11 01:34:02;;;;;;;41.65;26.42;;;;;;;13.85;67.72;99853.69;4454775;32;33587;-86
2023/10/11 01:36:30;;;;;;;41.30;28.12;;;;;;;13.94;67.43;99837.25;4465529;32;33972;-87
2023/10/11 01:39:05;;;;;;;39.42;27.27;;;;;;;13.92;67.66;99839.00;4451753;32;33865;-86
2023/10/11 01:41:33;;;;;;;40.30;25.70;;;;;;;14.04;67.41;99847.81;4462051;32;34093;-87
2023/10/11 01:44:00;;;;;;;45.17;28.25;;;;;;;14.04;67.38;99836.50;4465879;32;34602;-86
2023/10/11 01:46:27;;;;;;;40.28;27.17;;;;;;;14.02;67.40;99840.84;4461507;32;33845;-86
2023/10/11 01:48:56;;;;;;;40.25;26.75;;;;;;;14.08;67.27;99836.53;4459170;32;34050;-84
2023/10/11 01:51:27;;;;;;;43.13;28.65;;;;;;;14.04;67.33;99847.81;4442131;32;33684;-86
2023/10/11 01:53:59;;;;;;;42.67;27.92;;;;;;;14.04;67.50;99852.16;4454501;32;33947;-86
2023/10/11 01:56:30;;;;;;;48.10;28.50;;;;;;;13.94;68.01;99852.91;4458323;32;34138;-85
2023/10/11 01:59:00;;;;;;;45.05;28.55;;;;;;;13.91;68.11;99853.78;4446872;32;34383;-86
2023/10/11 02:01:38;;;;;;;43.72;28.08;;;;;;;13.90;68.32;99851.13;4459577;32;33383;-84
2023/10/11 02:04:17;;;;;;;43.35;28.23;;;;;;;13.98;67.97;99847.75;4446275;32;33930;-86
2023/10/11 02:06:52;;;;;;;48.13;29.60;;;;;;;14.02;67.70;99844.31;4442074;32;33833;-86
2023/10/11 02:09:21;;;;;;;41.92;27.15;;;;;;;14.00;67.87;99846.03;4449915;32;33743;-87
2023/10/11 02:11:53;;;;;;;40.28;26.67;;;;;;;14.07;67.56;99832.19;4455245;32;33486;-87
2023/10/11 02:14:22;;;;;;;43.03;27.00;;;;;;;14.06;67.05;99838.28;4453248;32;34687;-84
2023/10/11 02:16:54;;;;;;;42.80;27.58;;;;;;;13.93;67.39;99838.12;4462662;32;35123;-86
2023/10/11 02:19:24;;;;;;;46.40;28.73;;;;;;;13.92;67.43;99839.88;4454245;32;33440;-85
2023/10/11 02:21:56;;;;;;;41.22;28.30;;;;;;;14.00;67.31;99839.94;4464474;32;34621;-86
2023/10/11 02:24:25;;;;;;;42.88;29.87;;;;;;;13.92;67.54;99845.09;4449906;32;35448;-87
2023/10/11 02:26:54;;;;;;;40.15;26.62;;;;;;;13.82;67.98;99843.22;4454458;32;34128;-85
2023/10/11 02:29:25;;;;;;;41.08;27.62;;;;;;;13.92;67.79;99845.09;4440968;32;34552;-86
2023/10/11 02:31:55;;;;;;;45.17;28.38;;;;;;;13.90;67.69;99846.78;4438769;32;33752;-85
2023/10/11 02:34:23;;;;;;;43.58;29.25;;;;;;;13.90;67.60;99854.59;4453213;32;33343;-84
2023/10/11 02:37:10;;;;;;;35.17;26.67;;;;;;;13.83;67.85;99851.09;4466653;32;33935;-84
2023/10/11 02:39:44;;;;;;;40.12;26.70;;;;;;;13.86;67.81;99855.44;4441000;32;33391;-85
2023/10/11 02:42:19;;;;;;;42.97;28.12;;;;;;;13.81;68.01;99842.38;4454318;32;34186;-87
2023/10/11 02:44:48;;;;;;;36.03;26.55;;;;;;;13.67;68.40;99849.16;4454236;32;34307;-87
2023/10/11 02:47:22;;;;;;;37.25;26.98;;;;;;;13.86;67.74;99845.00;4463763;32;34282;-87
2023/10/11 02:49:53;;;;;;;43.85;27.70;;;;;;;13.82;67.61;99838.88;4466718;32;34457;-85
2023/10/11 02:52:29;;;;;;;39.25;26.50;;;;;;;13.73;67.97;99832.72;4451564;32;33629;-87
2023/10/11 02:54:59;;;;;;;41.78;26.87;;;;;;;13.80;67.68;99829.31;4451603;32;33817;-85
2023/10/11 02:57:27;;;;;;;39.47;26.40;;;;;;;13.86;67.44;99824.16;4452150;32;34216;-85
2023/10/11 02:59:56;;;;;;;38.65;25.62;;;;;;;13.99;66.81;99826.03;4457888;32;33691;-83
2023/10/11 03:02:29;;;;;;;37.92;26.45;;;;;;;13.84;67.13;99831.09;4458772;32;32952;-84
2023/10/11 03:05:01;;;;;;;38.00;25.85;;;;;;;13.81;67.37;99826.72;4467096;32;33638;-85
2023/10/11 03:07:33;;;;;;;36.08;25.95;;;;;;;13.82;67.44;99830.19;4462525;32;34704;-83
2023/10/11 03:10:03;;;;;;;39.47;27.75;;;;;;;13.78;67.82;99842.31;4451820;32;33592;-84
2023/10/11 03:12:31;;;;;;;41.30;29.15;;;;;;;14.03;66.98;99843.47;4450995;32;33541;-83
2023/10/11 03:15:08;;;;;;;40.60;27.98;;;;;;;13.78;67.94;99839.72;4451452;32;33512;-83
2023/10/11 03:17:42;;;;;;;36.88;27.40;;;;;;;13.77;68.13;99837.97;4457992;32;33895;-85
2023/10/11 03:23:25;;;;;;;38.67;25.88;;;;;;;13.71;68.58;99834.41;4412468;32;33370;-83
2023/10/11 03:25:53;;;;;;;38.10;25.58;;;;;;;13.94;67.90;99842.47;4417473;32;33954;-83
2023/10/11 03:28:26;;;;;;;34.33;25.52;;;;;;;14.02;67.52;99846.06;4429162;32;34166;-83
2023/10/11 03:30:54;;;;;;;39.70;26.70;;;;;;;13.95;67.69;99850.34;4459462;32;34077;-85
2023/10/11 03:33:22;;;;;;;39.22;25.33;;;;;;;13.94;67.80;99838.16;4455905;32;34542;-85
2023/10/11 03:35:50;;;;;;;41.33;28.75;;;;;;;13.96;67.79;99846.00;4455222;32;33647;-84
2023/10/11 03:38:21;;;;;;;38.72;25.92;;;;;;;14.00;67.81;99843.41;4458346;32;35047;-85
2023/10/11 03:40:55;;;;;;;38.95;26.48;;;;;;;14.05;67.72;99840.84;4447359;32;34275;-85
2023/10/11 03:43:26;;;;;;;41.17;26.92;;;;;;;14.03;67.88;99846.06;4461723;32;34449;-86
2023/10/11 03:45:59;;;;;;;49.45;28.30;;;;;;;13.94;68.24;99838.16;4439685;32;33500;-86
2023/10/11 03:48:34;;;;;;;46.80;28.15;;;;;;;13.88;68.63;99843.31;4458405;32;34661;-85
2023/10/11 03:51:06;;;;;;;54.37;30.67;;;;;;;13.96;68.75;99846.00;4453237;32;34099;-86
2023/10/11 03:53:39;;;;;;;51.37;28.45;;;;;;;14.01;68.46;99845.16;4457368;32;33371;-85
2023/10/11 03:56:07;;;;;;;57.60;29.77;;;;;;;14.07;68.47;99850.44;4466680;32;34703;-85
2023/10/11 03:58:37;;;;;;;48.38;27.02;;;;;;;14.02;68.77;99844.31;4465873;32;35031;-85
2023/10/11 04:01:23;;;;;;;46.78;29.70;;;;;;;14.01;68.98;99833.87;4461009;32;34477;-85
2023/10/11 04:03:52;;;;;;;47.83;29.08;;;;;;;14.07;68.85;99842.63;4453224;32;33083;-82
2023/10/11 04:06:20;;;;;;;45.22;28.90;;;;;;;14.11;68.95;99847.00;4450737;32;34026;-84
2023/10/11 04:08:57;;;;;;;54.40;30.50;;;;;;;14.22;68.72;99838.41;4450657;32;34231;-83
2023/10/11 04:11:32;;;;;;;62.97;36.22;;;;;;;14.18;68.93;99837.50;4451058;32;33493;-84
2023/10/11 04:14:00;;;;;;;62.38;35.28;;;;;;;14.10;69.67;99839.19;4450151;32;33282;-84
2023/10/11 04:16:28;;;;;;;103.30;38.13;;;;;;;14.17;69.67;99855.72;4452882;32;34343;-84
2023/10/11 04:19:01;;;;;;;104.85;41.15;;;;;;;14.31;69.69;99851.53;4459583;32;33915;-83
2023/10/11 04:24:24;;;;;;;85.68;38.13;;;;;;;14.26;70.14;99832.38;4454180;32;35107;-85
2023/10/11 04:27:45;;;;;;;85.75;39.47;;;;;;;14.45;69.50;99833.37;4456245;32;34073;-83
2023/10/11 04:29:42;;;;;;;105.55;39.90;;;;;;;14.38;69.85;99848.09;4453689;32;34150;-86
2023/10/11 04:32:13;;;;;;;121.40;43.03;;;;;;;14.42;70.27;99849.88;4457516;32;34156;-86
2023/10/11 04:34:48;;;;;;;104.22;41.13;;;;;;;14.21;70.71;99844.50;4457132;32;33330;-83
2023/10/11 04:37:27;;;;;;;129.32;45.05;;;;;;;14.20;70.96;99845.34;4450187;32;34702;-85
2023/10/11 04:40:16;;;;;;;105.15;41.70;;;;;;;14.25;70.91;99851.50;4451141;32;34865;-84
2023/10/11 04:42:44;;;;;;;110.88;44.92;;;;;;;14.02;72.02;99862.56;4446979;32;34022;-84
2023/10/11 04:45:21;;;;;;;97.80;39.95;;;;;;;14.12;71.81;99856.56;4457581;32;34322;-85
2023/10/11 04:47:56;;;;;;;106.65;41.90;;;;;;;14.27;71.59;99847.16;4466968;32;34269;-83
2023/10/11 04:50:30;;;;;;;84.87;39.13;;;;;;;14.23;71.92;99856.66;4458609;32;34031;-84
2023/10/11 04:52:58;;;;;;;97.25;41.42;;;;;;;14.20;71.92;99858.38;4428832;32;33720;-83
2023/10/11 04:55:34;;;;;;;108.28;43.65;;;;;;;14.07;72.23;99866.09;4452643;32;33371;-83
2023/10/11 04:58:07;;;;;;;105.53;41.25;;;;;;;14.49;70.74;99866.47;4439676;32;32750;-83
2023/10/11 05:00:44;;;;;;;101.28;42.00;;;;;;;14.18;71.79;99870.53;4453505;32;34013;-85
2023/10/11 05:03:12;;;;;;;126.35;43.25;;;;;;;14.14;72.04;99861.81;4461708;32;34536;-84
2023/10/11 05:05:58;;;;;;;110.12;43.70;;;;;;;13.44;74.75;99867.12;4457611;32;33221;-84
2023/10/11 05:08:51;;;;;;;106.50;40.10;;;;;;;13.53;74.79;99867.25;4462741;32;34432;-84
2023/10/11 05:11:39;;;;;;;114.47;43.65;;;;;;;13.85;73.56;99874.53;4455939;32;35296;-86
2023/10/11 05:16:59;;;;;;;105.68;41.67;;;;;;;14.07;72.96;99881.72;4452421;32;33249;-86
2023/10/11 05:19:27;;;;;;;99.43;38.67;;;;;;;14.11;72.97;99874.81;4455470;32;33991;-86
2023/10/11 05:21:55;;;;;;;90.15;38.03;;;;;;;14.05;73.15;99880.88;4451437;32;34500;-86
2023/10/11 05:33:41;;;;;;;98.72;38.08;;;;;;;14.00;72.92;99903.38;4453860;32;33907;-86
2023/10/11 05:52:18;;;;;;;99.57;38.97;;;;;;;13.78;74.03;99893.56;4450996;32;34718;-86
2023/10/11 05:54:45;;;;;;;115.78;39.75;;;;;;;13.82;73.95;99887.53;4456461;32;33865;-86
2023/10/11 05:57:13;;;;;;;83.32;38.13;;;;;;;13.80;74.44;99878.84;4464435;32;34579;-86
2023/10/11 05:59:42;;;;;;;135.57;41.08;;;;;;;13.96;73.93;99885.97;4466487;32;34389;-86
2023/10/11 06:02:18;;;;;;;327.48;53.67;;;;;;;14.00;73.97;99892.09;4464649;32;34111;-86
2023/10/11 06:04:47;;;;;;;166.55;42.08;;;;;;;13.98;74.30;99899.00;4463600;32;34106;-86
2023/10/11 06:07:16;;;;;;;352.75;51.67;;;;;;;14.20;73.47;99907.91;4450748;32;33436;-86
2023/10/11 06:09:45;;;;;;;98.18;41.25;;;;;;;13.91;74.78;99900.69;4450864;32;33283;-86
2023/10/11 06:12:23;;;;;;;221.00;47.75;;;;;;;14.08;74.34;99914.75;4450810;32;34015;-85
2023/10/11 06:14:52;;;;;;;106.07;43.65;;;;;;;14.29;73.88;99913.25;4450882;32;34114;-86
2023/10/11 06:17:41;;;;;;;241.02;64.35;;;;;;;14.23;73.91;99916.66;4423700;32;34036;-86
2023/10/11 06:20:23;;;;;;;204.85;45.75;;;;;;;14.38;73.04;99918.53;4438637;32;33821;-86
2023/10/11 06:22:51;;;;;;;284.15;51.55;;;;;;;14.10;73.96;99913.06;4438084;32;33897;-86
2023/10/11 06:28:09;;;;;;;156.45;45.00;;;;;;;14.15;74.32;99907.00;4438760;32;33883;-85
2023/10/11 06:30:36;;;;;;;256.52;50.05;;;;;;;14.18;74.49;99905.31;4450350;32;33522;-86
2023/10/11 06:33:06;;;;;;;115.80;42.85;;;;;;;14.28;74.49;99906.25;4450400;32;33914;-84
2023/10/11 06:35:43;;;;;;;219.07;48.78;;;;;;;14.22;74.03;99906.22;4449885;32;34552;-86
2023/10/11 06:38:12;;;;;;;299.27;51.42;;;;;;;14.20;74.75;99908.78;4451432;32;33734;-86
2023/10/11 06:40:46;;;;;;;201.43;47.45;;;;;;;14.14;75.00;99913.09;4438785;32;33085;-85
2023/10/11 06:43:15;;;;;;;154.48;51.25;;;;;;;13.85;76.40;99918.84;4452245;32;34068;-85
2023/10/11 06:45:44;;;;;;;196.82;48.67;;;;;;;14.15;75.36;99918.31;4452086;32;34201;-85
2023/10/11 06:48:14;;;;;;;303.65;57.45;;;;;;;14.21;75.80;99917.53;4452415;32;34766;-85
2023/10/11 06:50:42;;;;;;;243.65;48.72;;;;;;;14.09;76.33;99910.41;4438347;32;33844;-85
2023/10/11 06:53:10;;;;;;;340.17;75.72;;;;;;;14.28;75.37;99908.87;4452169;32;35353;-86
2023/10/11 06:55:47;;;;;;;286.48;53.08;;;;;;;14.45;74.82;99909.91;4438163;32;35054;-86
2023/10/11 06:58:16;;;;;;;176.10;47.90;;;;;;;14.42;75.59;99915.09;4455700;32;34192;-86
2023/10/11 07:00:46;;;;;;;190.07;51.53;;;;;;;14.18;76.25;99913.12;4442287;32;33015;-84
2023/10/11 07:06:00;;;;;;;240.82;60.20;;;;;;;14.24;76.72;99925.34;4452357;32;33798;-85
2023/10/11 07:08:35;;;;;;;130.50;46.30;;;;;;;14.48;75.98;99935.16;4452530;32;34147;-85
2023/10/11 07:13:49;;;;;;;114.78;46.58;;;;;;;14.51;75.87;99925.66;4452283;32;33941;-86
2023/10/11 07:16:22;;;;;;;138.90;49.80;;;;;;;14.60;75.99;99922.25;4452412;32;33658;-85
2023/10/11 07:18:57;;;;;;;183.68;46.78;;;;;;;14.90;75.73;99924.25;4438283;32;33898;-85
2023/10/11 07:21:27;;;;;;;127.78;48.00;;;;;;;14.64;76.20;99933.59;4461760;32;33743;-87
2023/10/11 07:28:53;;;;;;;138.45;47.83;;;;;;;14.85;76.76;99925.94;4467550;32;34594;-85
2023/10/11 07:31:32;;;;;;;154.68;50.90;;;;;;;14.75;77.07;99918.91;4467967;32;33584;-84
2023/10/11 07:34:05;;;;;;;132.00;51.75;;;;;;;15.04;76.06;99927.81;4466971;32;34053;-85
2023/10/11 07:36:36;;;;;;;130.80;50.05;;;;;;;15.11;76.28;99925.22;4467857;32;34269;-85
2023/10/11 07:41:52;;;;;;;123.50;49.85;;;;;;;15.46;76.05;99931.56;4467795;32;34298;-86
2023/10/11 07:44:19;;;;;;;115.37;49.13;;;;;;;15.42;76.41;99931.50;4440757;32;32317;-86
2023/10/11 07:46:48;;;;;;;128.23;50.05;;;;;;;15.30;75.62;99933.22;4467638;32;33663;-86
2023/10/11 07:49:22;;;;;;;126.20;50.20;;;;;;;15.80;74.09;99931.75;4467315;32;35502;-86
2023/10/11 07:51:58;;;;;;;140.50;51.58;;;;;;;15.83;73.36;99934.34;4467387;32;33667;-86
2023/10/11 07:54:27;;;;;;;125.53;48.78;;;;;;;15.81;73.65;99941.31;4467425;32;34760;-87
2023/10/11 07:57:00;;;;;;;122.35;50.05;;;;;;;15.57;74.61;99940.31;4453282;32;33973;-86
2023/10/11 07:59:28;;;;;;;129.65;51.22;;;;;;;15.54;75.57;99939.44;4453306;32;34103;-86
2023/10/11 08:01:59;;;;;;;116.00;49.28;;;;;;;15.64;75.86;99930.75;4453528;32;33554;-85
2023/10/11 08:04:30;;;;;;;116.15;48.53;;;;;;;16.14;74.42;99926.59;4453417;32;33486;-87
2023/10/11 08:07:06;;;;;;;59.85;32.13;;;;;;;16.08;75.15;99926.59;4467426;32;34942;-87
2023/10/11 08:09:45;;;;;;;53.87;31.60;;;;;;;16.11;75.30;99929.22;4470223;32;33714;-86
2023/10/11 08:12:14;;;;;;;56.05;32.42;;;;;;;16.01;75.34;99939.66;4455023;32;34833;-86
2023/10/11 08:14:45;;;;;;;53.63;32.85;;;;;;;16.38;73.92;99939.75;4467593;32;33787;-86
2023/10/11 08:17:17;;;;;;;61.28;35.20;;;;;;;16.24;74.11;99934.47;4467220;32;34848;-86
2023/10/11 08:19:46;;;;;;;61.47;35.67;;;;;;;16.33;73.99;99938.88;4455243;32;34478;-87
2023/10/11 08:22:15;;;;;;;67.75;41.00;;;;;;;16.22;74.28;99937.97;4441380;32;33888;-86
2023/10/11 08:24:52;;;;;;;68.18;41.22;;;;;;;16.36;73.95;99938.84;4453455;32;33860;-87
2023/10/11 08:27:29;;;;;;;73.35;44.15;;;;;;;16.56;73.08;99933.66;4467364;32;35476;-85
2023/10/11 08:30:16;;;;;;;72.82;44.33;;;;;;;16.72;72.07;99932.78;4467241;32;33504;-86
2023/10/11 08:32:46;;;;;;;79.90;44.15;;;;;;;16.80;70.78;99931.94;4467379;32;33354;-86
2023/10/11 08:35:26;;;;;;;75.95;43.65;;;;;;;16.75;70.56;99932.81;4453386;32;33750;-83
2023/10/11 08:38:00;;;;;;;69.00;40.70;;;;;;;16.84;70.56;99920.59;4467375;32;34809;-87
2023/10/11 08:40:39;;;;;;;71.28;42.47;;;;;;;17.04;70.09;99921.44;4464949;32;34879;-86
2023/10/11 08:43:07;;;;;;;81.25;44.95;;;;;;;17.11;69.70;99920.56;4467373;32;34348;-87
2023/10/11 08:45:59;;;;;;;77.53;42.90;;;;;;;17.07;69.28;99917.94;4467318;32;33465;-87
2023/10/11 08:48:27;;;;;;;77.80;45.35;;;;;;;17.26;68.86;99914.41;4454653;32;34156;-86
2023/10/11 08:50:55;;;;;;;74.82;43.30;;;;;;;17.06;68.89;99918.84;4453015;32;33758;-86
2023/10/11 08:53:26;;;;;;;67.25;40.70;;;;;;;17.30;68.12;99916.16;4467071;32;33471;-87
2023/10/11 08:55:56;;;;;;;72.68;43.47;;;;;;;16.97;68.85;99914.47;4466853;32;33732;-86
2023/10/11 08:58:29;;;;;;;71.25;41.78;;;;;;;17.48;68.13;99916.09;4453651;32;33633;-86
2023/10/11 09:00:58;;;;;;;60.03;38.70;;;;;;;16.99;68.97;99912.72;4452757;32;34771;-86
2023/10/11 09:03:32;;;;;;;68.93;41.83;;;;;;;17.06;68.95;99924.06;4453061;32;33585;-86
2023/10/11 09:06:00;;;;;;;65.03;36.58;;;;;;;17.38;67.81;99914.38;4452882;32;34628;-83
2023/10/11 09:08:35;;;;;;;59.75;37.20;;;;;;;17.56;67.15;99920.44;4453100;32;34598;-86
2023/10/11 09:11:06;;;;;;;59.83;37.33;;;;;;;17.75;67.74;99924.78;4467052;32;33827;-87
2023/10/11 09:13:36;;;;;;;64.62;41.53;;;;;;;18.04;66.42;99915.91;4467044;32;33099;-86
2023/10/11 09:16:12;;;;;;;64.18;38.55;;;;;;;17.97;66.56;99912.44;4466864;32;33954;-86
2023/10/11 09:18:46;;;;;;;57.00;36.60;;;;;;;18.09;65.97;99916.72;4453697;32;34469;-87
2023/10/11 09:21:17;;;;;;;53.97;34.67;;;;;;;18.24;65.97;99920.13;4452439;32;33127;-87
2023/10/11 09:23:46;;;;;;;56.13;34.17;;;;;;;18.39;65.33;99921.78;4453349;32;33616;-88
2023/10/11 09:26:21;;;;;;;52.65;35.00;;;;;;;18.39;65.22;99908.66;4467062;32;34646;-87
2023/10/11 09:28:58;;;;;;;56.30;33.78;;;;;;;18.16;66.16;99921.06;4442006;32;33763;-85
2023/10/11 09:31:27;;;;;;;60.83;36.58;;;;;;;18.23;65.30;99915.78;4453267;32;34311;-87
2023/10/11 09:33:59;;;;;;;62.35;37.90;;;;;;;18.58;64.44;99924.28;4466751;32;33019;-87
2023/10/11 09:36:28;;;;;;;59.47;37.75;;;;;;;18.57;64.32;99922.56;4466732;32;34449;-87
2023/10/11 09:38:56;;;;;;;60.85;37.38;;;;;;;18.29;65.35;99930.59;4466866;32;34753;-87
2023/10/11 09:41:38;;;;;;;58.75;36.60;;;;;;;18.41;65.41;99927.91;4452537;32;34049;-87
2023/10/11 09:44:10;;;;;;;59.10;37.65;;;;;;;18.77;64.37;99920.66;4453490;32;33781;-88
2023/10/11 09:46:38;;;;;;;55.92;34.78;;;;;;;18.58;65.17;99925.16;4452950;32;34720;-87
2023/10/11 09:49:12;;;;;;;58.63;37.50;;;;;;;18.51;64.98;99914.72;4452593;32;33543;-87
2023/10/11 09:51:41;;;;;;;54.28;35.35;;;;;;;18.36;64.99;99920.94;4453313;32;34311;-86
2023/10/11 09:54:12;;;;;;;59.58;36.30;;;;;;;18.52;64.67;99912.06;4452667;32;34211;-86
2023/10/11 09:57:20;;;;;;;53.47;35.15;;;;;;;18.20;66.87;99918.41;4466658;32;33589;-86
2023/10/11 10:00:14;;;;;;;50.72;33.78;;;;;;;18.56;65.21;99919.06;4433029;32;34955;-87
2023/10/11 10:02:50;;;;;;;47.85;31.83;;;;;;;18.45;65.73;99916.50;4452648;32;34024;-85
2023/10/11 10:05:22;;;;;;;53.30;28.85;;;;;;;18.59;65.52;99918.13;4452984;32;34119;-87
2023/10/11 10:07:51;;;;;;;42.30;27.17;;;;;;;18.63;65.03;99918.09;4466349;32;33582;-87
2023/10/11 10:10:25;;;;;;;39.60;26.15;;;;;;;18.83;64.68;99917.13;4452397;32;34887;-86
2023/10/11 10:12:58;;;;;;;40.10;26.40;;;;;;;19.05;63.66;99915.13;4467188;32;34672;-86
2023/10/11 10:15:32;;;;;;;41.90;23.70;;;;;;;19.24;63.90;99911.44;4454732;32;33040;-86
2023/10/11 10:18:12;;;;;;;35.70;22.95;;;;;;;19.29;62.75;99904.38;4468169;32;33994;-86
2023/10/11 10:20:41;;;;;;;38.25;23.55;;;;;;;19.74;61.56;99902.13;4468664;32;33746;-86
2023/10/11 10:23:15;;;;;;;34.17;23.27;;;;;;;19.79;61.87;99889.78;4468295;32;34568;-88
2023/10/11 10:26:12;;;;;;;33.40;22.02;;;;;;;19.83;62.14;99888.84;4468252;32;33405;-88
2023/10/11 10:28:39;;;;;;;32.50;20.60;;;;;;;19.49;62.08;99895.41;4467860;32;33250;-87
2023/10/11 10:31:20;;;;;;;31.50;20.00;;;;;;;19.82;61.51;99883.62;4468325;32;33628;-87
2023/10/11 10:34:12;;;;;;;28.00;18.40;;;;;;;20.04;61.63;99884.16;4454416;32;33414;-87
2023/10/11 10:36:40;;;;;;;29.83;16.90;;;;;;;19.79;60.73;99873.13;4468082;32;33704;-86
2023/10/11 10:41:44;;;;;;;24.50;15.95;;;;;;;20.49;59.21;99879.09;4468300;32;33970;-85
2023/10/11 10:44:14;;;;;;;22.85;13.27;;;;;;;20.42;60.21;99873.94;4453471;32;33665;-85
2023/10/11 10:46:55;;;;;;;20.50;13.88;;;;;;;20.45;59.59;99861.59;4453678;32;33009;-85
2023/10/11 10:49:29;;;;;;;18.05;11.30;;;;;;;20.60;59.37;99859.62;4454744;32;33576;-86
2023/10/11 10:51:57;;;;;;;17.98;11.77;;;;;;;20.63;59.28;99858.69;4454236;32;33491;-85
2023/10/11 10:54:25;;;;;;;14.77;10.05;;;;;;;20.62;59.94;99862.25;4468492;32;33609;-85
2023/10/11 10:56:57;;;;;;;18.27;10.85;;;;;;;20.81;58.40;99844.34;4468045;32;33515;-86
2023/10/11 10:59:26;;;;;;;15.15;10.85;;;;;;;21.17;58.59;99850.66;4467904;32;33531;-85
2023/10/11 11:01:54;;;;;;;15.55;9.80;;;;;;;21.07;57.86;99843.84;4467969;32;34556;-85
2023/10/11 11:04:28;;;;;;;12.57;9.32;;;;;;;21.52;56.79;99850.00;4467836;32;33120;-86
2023/10/11 11:06:58;;;;;;;14.73;9.30;;;;;;;21.41;56.43;99838.81;4467805;32;33421;-86
2023/10/11 11:09:25;;;;;;;14.57;9.07;;;;;;;21.49;56.84;99830.75;4467956;32;33830;-85
2023/10/11 11:12:04;;;;;;;17.75;9.55;;;;;;;21.58;56.75;99820.84;4467899;32;34271;-86
2023/10/11 11:14:32;;;;;;;16.67;8.93;;;;;;;21.60;55.42;99826.97;4454818;32;33780;-85
2023/10/11 11:17:07;;;;;;;15.40;8.35;;;;;;;21.70;56.23;99824.97;4467880;32;33381;-85
2023/10/11 11:19:37;;;;;;;14.32;8.02;;;;;;;22.07;55.11;99822.38;4454959;32;33657;-85
2023/10/11 11:22:12;;;;;;;14.93;8.40;;;;;;;21.86;55.70;99823.75;4467905;32;34991;-85
2023/10/11 11:24:42;;;;;;;14.40;8.32;;;;;;;22.16;54.14;99816.06;4467259;32;34436;-85
2023/10/11 11:27:28;;;;;;;12.45;7.35;;;;;;;22.29;53.61;99822.75;4454111;32;33616;-84
2023/10/11 11:30:03;;;;;;;12.37;7.80;;;;;;;22.37;53.33;99817.28;4454395;32;33563;-85
2023/10/11 11:32:39;;;;;;;15.55;7.32;;;;;;;22.43;52.59;99808.34;4454673;32;34126;-85
2023/10/11 11:35:25;;;;;;;;;;;;;;;22.24;54.34;99807.94;4453954;32;34303;-86
2023/10/11 11:38:02;;;;;;;12.85;8.00;;;;;;;22.10;53.22;99798.53;4468011;32;33779;-85
2023/10/11 11:40:47;;;;;;;;;;;;;;;22.33;53.46;99790.06;4454493;32;33944;-85
2023/10/11 11:43:19;;;;;;;12.07;7.75;;;;;;;22.54;52.08;99790.41;4467798;32;35133;-85
2023/10/11 11:45:51;;;;;;;12.50;7.40;;;;;;;22.65;52.73;99790.13;4454235;32;33381;-85
2023/10/11 11:48:23;;;;;;;15.38;7.25;;;;;;;22.58;52.21;99785.03;4453711;32;34651;-85
2023/10/11 11:50:56;;;;;;;15.13;8.35;;;;;;;22.43;52.77;99784.56;4467206;32;33683;-86
2023/10/11 11:53:24;;;;;;;13.65;7.55;;;;;;;22.46;52.94;99779.19;4467776;32;33843;-86
2023/10/11 11:55:52;;;;;;;12.82;7.10;;;;;;;22.62;52.64;99775.25;4467843;32;33605;-86
2023/10/11 11:58:20;;;;;;;12.63;7.20;;;;;;;22.74;52.83;99772.25;4468125;32;33098;-88
2023/10/11 12:01:08;;;;;;;17.62;7.30;;;;;;;22.65;52.09;99775.13;4467985;32;33652;-86
2023/10/11 12:03:36;;;;;;;12.48;6.35;;;;;;;23.11;51.12;99767.75;4467789;32;34788;-86
2023/10/11 12:06:21;;;;;;;11.20;6.40;;;;;;;22.85;53.43;99771.97;4467697;32;33570;-86
2023/10/11 12:08:57;;;;;;;14.30;5.97;;;;;;;23.02;50.71;99763.59;4467865;32;34330;-86
2023/10/11 12:11:30;;;;;;;13.48;5.50;;;;;;;23.16;51.29;99760.56;4467613;32;34497;-86
2023/10/11 12:14:00;;;;;;;13.75;5.05;;;;;;;23.18;50.92;99764.00;4467565;32;33863;-86
2023/10/11 12:16:28;;;;;;;10.35;5.22;;;;;;;23.43;50.29;99753.56;4467530;32;34416;-86
2023/10/11 12:18:59;;;;;;;8.88;4.10;;;;;;;23.30;49.74;99751.31;4467226;32;34551;-87
2023/10/11 12:21:28;;;;;;;9.65;3.67;;;;;;;23.30;48.22;99750.44;4454048;32;33539;-85
2023/10/11 12:23:56;;;;;;;12.07;4.43;;;;;;;23.38;47.41;99753.72;4467565;32;34305;-87
2023/10/11 12:26:26;;;;;;;8.25;4.60;;;;;;;23.36;47.32;99757.31;4467528;32;34864;-87
2023/10/11 12:28:56;;;;;;;11.73;4.10;;;;;;;23.60;47.27;99746.00;4467708;32;33163;-85
2023/10/11 12:31:27;;;;;;;7.47;3.00;;;;;;;23.24;47.07;99742.69;4467502;32;34218;-86
2023/10/11 12:33:54;;;;;;;10.23;3.40;;;;;;;23.45;47.03;99741.13;4467025;32;33555;-86
2023/10/11 12:36:22;;;;;;;10.95;4.05;;;;;;;23.57;47.59;99737.28;4466442;32;34694;-86